sensor_id;sensor_type;location;lat;lon;timestamp;P1;durP1;ratioP1;P2;durP2;ratioP2
16826;SDS011;8530;49.540;8.576;2023-07-13T00:00:46;3.80;;;1.90;;
16826;SDS011;8530;49.540;8.576;2023-07-13T00:03:13;4.90;;;2.07;;
16826;SDS011;8530;49.540;8.576;2023-07-13T00:05:40;6.13;;;2.13;;
16826;SDS011;8530;49.540;8.576;2023-07-13T00:08:08;2.23;;;1.70;;
16826;SDS011;8530;49.540;8.576;2023-07-13T00:10:38;2.90;;;1.50;;
16826;SDS011;8530;49.540;8.576;2023-07-13T00:13:06;3.23;;;1.70;;
16826;SDS011;8530;49.540;8.576;2023-07-13T00:15:34;2.77;;;1.73;;
16826;SDS011;8530;49.540;8.576;2023-07-13T00:18:00;4.43;;;2.10;;
16826;SDS011;8530;49.540;8.576;2023-07-13T00:20:27;2.30;;;2.00;;
16826;SDS011;8530;49.540;8.576;2023-07-13T00:22:54;3.10;;;1.83;;
16826;SDS011;8530;49.540;8.576;2023-07-13T00:25:23;6.30;;;1.70;;
16826;SDS011;8530;49.540;8.576;2023-07-13T00:27:53;3.60;;;2.10;;
16826;SDS011;8530;49.540;8.576;2023-07-13T00:30:20;2.87;;;1.70;;
16826;SDS011;8530;49.540;8.576;2023-07-13T00:32:47;2.60;;;1.97;;
16826;SDS011;8530;49.540;8.576;2023-07-13T00:35:14;7.23;;;2.00;;
16826;SDS011;8530;49.540;8.576;2023-07-13T00:37:41;3.00;;;1.77;;
16826;SDS011;8530;49.540;8.576;2023-07-13T00:40:09;6.70;;;2.17;;
16826;SDS011;8530;49.540;8.576;2023-07-13T00:42:39;2.30;;;1.87;;
16826;SDS011;8530;49.540;8.576;2023-07-13T00:45:07;4.90;;;2.40;;
16826;SDS011;8530;49.540;8.576;2023-07-13T00:47:49;3.20;;;2.43;;
16826;SDS011;8530;49.540;8.576;2023-07-13T00:50:16;3.57;;;2.00;;
16826;SDS011;8530;49.540;8.576;2023-07-13T00:52:46;3.70;;;1.80;;
16826;SDS011;8530;49.540;8.576;2023-07-13T00:55:15;3.17;;;2.73;;
16826;SDS011;8530;49.540;8.576;2023-07-13T00:57:44;4.80;;;1.87;;
16826;SDS011;8530;49.540;8.576;2023-07-13T01:00:12;5.53;;;2.20;;
16826;SDS011;8530;49.540;8.576;2023-07-13T01:02:40;4.80;;;2.50;;
16826;SDS011;8530;49.540;8.576;2023-07-13T01:05:09;6.43;;;2.33;;
16826;SDS011;8530;49.540;8.576;2023-07-13T01:07:36;4.63;;;2.40;;
16826;SDS011;8530;49.540;8.576;2023-07-13T01:10:02;4.50;;;2.43;;
16826;SDS011;8530;49.540;8.576;2023-07-13T01:12:29;3.73;;;2.47;;
16826;SDS011;8530;49.540;8.576;2023-07-13T01:14:58;6.93;;;2.50;;
16826;SDS011;8530;49.540;8.576;2023-07-13T01:17:26;3.30;;;2.27;;
16826;SDS011;8530;49.540;8.576;2023-07-13T01:19:53;3.63;;;2.60;;
16826;SDS011;8530;49.540;8.576;2023-07-13T01:22:22;3.00;;;2.17;;
16826;SDS011;8530;49.540;8.576;2023-07-13T01:24:51;5.60;;;2.60;;
16826;SDS011;8530;49.540;8.576;2023-07-13T01:27:21;4.27;;;1.90;;
16826;SDS011;8530;49.540;8.576;2023-07-13T01:29:50;4.07;;;3.07;;
16826;SDS011;8530;49.540;8.576;2023-07-13T01:32:18;5.40;;;2.13;;
16826;SDS011;8530;49.540;8.576;2023-07-13T01:34:49;4.03;;;2.27;;
16826;SDS011;8530;49.540;8.576;2023-07-13T01:37:19;2.90;;;2.47;;
16826;SDS011;8530;49.540;8.576;2023-07-13T01:39:47;4.13;;;2.90;;
16826;SDS011;8530;49.540;8.576;2023-07-13T01:42:14;2.60;;;2.20;;
16826;SDS011;8530;49.540;8.576;2023-07-13T01:44:41;5.27;;;2.67;;
16826;SDS011;8530;49.540;8.576;2023-07-13T01:47:08;3.77;;;2.43;;
16826;SDS011;8530;49.540;8.576;2023-07-13T01:49:35;3.17;;;2.63;;
16826;SDS011;8530;49.540;8.576;2023-07-13T01:52:03;4.87;;;2.80;;
16826;SDS011;8530;49.540;8.576;2023-07-13T01:54:30;7.10;;;3.10;;
16826;SDS011;8530;49.540;8.576;2023-07-13T01:57:00;3.93;;;2.43;;
16826;SDS011;8530;49.540;8.576;2023-07-13T01:59:28;2.53;;;2.17;;
16826;SDS011;8530;49.540;8.576;2023-07-13T02:01:54;5.73;;;2.90;;
16826;SDS011;8530;49.540;8.576;2023-07-13T02:04:21;6.30;;;2.80;;
16826;SDS011;8530;49.540;8.576;2023-07-13T02:06:48;3.10;;;2.37;;
16826;SDS011;8530;49.540;8.576;2023-07-13T02:09:14;3.17;;;2.80;;
16826;SDS011;8530;49.540;8.576;2023-07-13T02:11:41;3.97;;;3.07;;
16826;SDS011;8530;49.540;8.576;2023-07-13T02:14:09;2.60;;;2.40;;
16826;SDS011;8530;49.540;8.576;2023-07-13T02:16:36;3.40;;;2.53;;
16826;SDS011;8530;49.540;8.576;2023-07-13T02:19:02;6.57;;;2.90;;
16826;SDS011;8530;49.540;8.576;2023-07-13T02:21:31;8.80;;;2.50;;
16826;SDS011;8530;49.540;8.576;2023-07-13T02:23:58;3.63;;;3.27;;
16826;SDS011;8530;49.540;8.576;2023-07-13T02:26:25;4.73;;;2.60;;
16826;SDS011;8530;49.540;8.576;2023-07-13T02:28:52;5.83;;;2.93;;
16826;SDS011;8530;49.540;8.576;2023-07-13T02:31:20;4.50;;;2.53;;
16826;SDS011;8530;49.540;8.576;2023-07-13T02:33:46;3.67;;;2.40;;
16826;SDS011;8530;49.540;8.576;2023-07-13T02:36:13;4.60;;;2.03;;
16826;SDS011;8530;49.540;8.576;2023-07-13T02:38:41;5.23;;;2.93;;
16826;SDS011;8530;49.540;8.576;2023-07-13T02:41:08;3.60;;;2.73;;
16826;SDS011;8530;49.540;8.576;2023-07-13T02:43:35;9.60;;;3.27;;
16826;SDS011;8530;49.540;8.576;2023-07-13T02:46:03;5.30;;;3.60;;
16826;SDS011;8530;49.540;8.576;2023-07-13T02:48:33;3.93;;;2.80;;
16826;SDS011;8530;49.540;8.576;2023-07-13T02:51:00;4.40;;;2.40;;
16826;SDS011;8530;49.540;8.576;2023-07-13T02:53:27;5.90;;;2.73;;
16826;SDS011;8530;49.540;8.576;2023-07-13T02:55:53;6.33;;;3.40;;
16826;SDS011;8530;49.540;8.576;2023-07-13T02:58:20;4.33;;;3.03;;
16826;SDS011;8530;49.540;8.576;2023-07-13T03:00:47;3.33;;;3.03;;
16826;SDS011;8530;49.540;8.576;2023-07-13T03:03:15;8.77;;;3.27;;
16826;SDS011;8530;49.540;8.576;2023-07-13T03:05:44;10.13;;;3.17;;
16826;SDS011;8530;49.540;8.576;2023-07-13T03:08:15;3.40;;;2.60;;
16826;SDS011;8530;49.540;8.576;2023-07-13T03:10:43;5.17;;;3.20;;
16826;SDS011;8530;49.540;8.576;2023-07-13T03:13:09;5.47;;;3.73;;
16826;SDS011;8530;49.540;8.576;2023-07-13T03:15:36;5.80;;;3.33;;
16826;SDS011;8530;49.540;8.576;2023-07-13T03:18:03;4.60;;;2.93;;
16826;SDS011;8530;49.540;8.576;2023-07-13T03:20:31;4.10;;;2.60;;
16826;SDS011;8530;49.540;8.576;2023-07-13T03:23:00;7.27;;;3.60;;
16826;SDS011;8530;49.540;8.576;2023-07-13T03:25:27;7.53;;;3.80;;
16826;SDS011;8530;49.540;8.576;2023-07-13T03:27:54;4.50;;;3.10;;
16826;SDS011;8530;49.540;8.576;2023-07-13T03:30:21;3.90;;;3.40;;
16826;SDS011;8530;49.540;8.576;2023-07-13T03:32:48;4.70;;;3.93;;
16826;SDS011;8530;49.540;8.576;2023-07-13T03:35:15;3.90;;;3.43;;
16826;SDS011;8530;49.540;8.576;2023-07-13T03:37:41;6.13;;;3.23;;
16826;SDS011;8530;49.540;8.576;2023-07-13T03:40:10;5.20;;;3.90;;
16826;SDS011;8530;49.540;8.576;2023-07-13T03:42:38;3.97;;;2.90;;
16826;SDS011;8530;49.540;8.576;2023-07-13T03:45:05;5.83;;;3.87;;
16826;SDS011;8530;49.540;8.576;2023-07-13T03:47:32;7.70;;;3.90;;
16826;SDS011;8530;49.540;8.576;2023-07-13T03:49:59;6.40;;;3.67;;
16826;SDS011;8530;49.540;8.576;2023-07-13T03:52:26;3.47;;;2.67;;
16826;SDS011;8530;49.540;8.576;2023-07-13T03:54:53;7.80;;;2.77;;
16826;SDS011;8530;49.540;8.576;2023-07-13T03:57:21;9.30;;;2.80;;
16826;SDS011;8530;49.540;8.576;2023-07-13T03:59:48;3.80;;;2.87;;
16826;SDS011;8530;49.540;8.576;2023-07-13T04:02:14;4.70;;;2.60;;
16826;SDS011;8530;49.540;8.576;2023-07-13T04:04:42;7.67;;;3.23;;
16826;SDS011;8530;49.540;8.576;2023-07-13T04:07:09;11.57;;;2.77;;
16826;SDS011;8530;49.540;8.576;2023-07-13T04:09:36;7.37;;;3.27;;
16826;SDS011;8530;49.540;8.576;2023-07-13T04:12:03;5.00;;;2.57;;
16826;SDS011;8530;49.540;8.576;2023-07-13T04:14:31;5.10;;;2.60;;
16826;SDS011;8530;49.540;8.576;2023-07-13T04:16:58;4.90;;;2.47;;
16826;SDS011;8530;49.540;8.576;2023-07-13T04:19:24;6.33;;;2.73;;
16826;SDS011;8530;49.540;8.576;2023-07-13T04:21:51;5.43;;;2.63;;
16826;SDS011;8530;49.540;8.576;2023-07-13T04:24:18;8.30;;;4.03;;
16826;SDS011;8530;49.540;8.576;2023-07-13T04:26:45;6.17;;;3.27;;
16826;SDS011;8530;49.540;8.576;2023-07-13T04:29:11;4.20;;;2.80;;
16826;SDS011;8530;49.540;8.576;2023-07-13T04:31:39;3.03;;;2.30;;
16826;SDS011;8530;49.540;8.576;2023-07-13T04:34:06;4.33;;;2.90;;
16826;SDS011;8530;49.540;8.576;2023-07-13T04:36:32;5.63;;;3.60;;
16826;SDS011;8530;49.540;8.576;2023-07-13T04:39:02;4.90;;;2.67;;
16826;SDS011;8530;49.540;8.576;2023-07-13T04:41:29;4.60;;;2.63;;
16826;SDS011;8530;49.540;8.576;2023-07-13T04:43:55;7.20;;;3.23;;
16826;SDS011;8530;49.540;8.576;2023-07-13T04:46:22;4.40;;;3.10;;
16826;SDS011;8530;49.540;8.576;2023-07-13T04:48:50;3.07;;;2.60;;
16826;SDS011;8530;49.540;8.576;2023-07-13T04:51:18;12.00;;;2.77;;
16826;SDS011;8530;49.540;8.576;2023-07-13T04:53:45;4.00;;;3.03;;
16826;SDS011;8530;49.540;8.576;2023-07-13T04:56:11;6.20;;;3.43;;
16826;SDS011;8530;49.540;8.576;2023-07-13T04:58:38;6.17;;;3.27;;
16826;SDS011;8530;49.540;8.576;2023-07-13T05:01:05;5.30;;;2.73;;
16826;SDS011;8530;49.540;8.576;2023-07-13T05:03:33;8.13;;;2.97;;
16826;SDS011;8530;49.540;8.576;2023-07-13T05:06:02;4.93;;;2.90;;
16826;SDS011;8530;49.540;8.576;2023-07-13T05:08:31;3.73;;;2.77;;
16826;SDS011;8530;49.540;8.576;2023-07-13T05:10:59;8.30;;;3.13;;
16826;SDS011;8530;49.540;8.576;2023-07-13T05:13:26;3.60;;;2.93;;
16826;SDS011;8530;49.540;8.576;2023-07-13T05:15:56;6.33;;;3.30;;
16826;SDS011;8530;49.540;8.576;2023-07-13T05:18:25;5.70;;;3.27;;
16826;SDS011;8530;49.540;8.576;2023-07-13T05:20:59;8.27;;;2.90;;
16826;SDS011;8530;49.540;8.576;2023-07-13T05:23:28;7.87;;;4.03;;
16826;SDS011;8530;49.540;8.576;2023-07-13T05:25:56;6.13;;;2.50;;
16826;SDS011;8530;49.540;8.576;2023-07-13T05:28:23;6.73;;;2.93;;
16826;SDS011;8530;49.540;8.576;2023-07-13T05:30:50;7.70;;;2.87;;
16826;SDS011;8530;49.540;8.576;2023-07-13T05:33:19;5.03;;;2.50;;
16826;SDS011;8530;49.540;8.576;2023-07-13T05:35:46;6.60;;;2.77;;
16826;SDS011;8530;49.540;8.576;2023-07-13T05:38:14;5.20;;;2.80;;
16826;SDS011;8530;49.540;8.576;2023-07-13T05:40:43;6.70;;;3.07;;
16826;SDS011;8530;49.540;8.576;2023-07-13T05:43:10;6.73;;;3.57;;
16826;SDS011;8530;49.540;8.576;2023-07-13T05:45:37;11.03;;;3.13;;
16826;SDS011;8530;49.540;8.576;2023-07-13T05:48:03;5.43;;;3.33;;
16826;SDS011;8530;49.540;8.576;2023-07-13T05:50:30;4.50;;;3.20;;
16826;SDS011;8530;49.540;8.576;2023-07-13T05:52:57;5.70;;;2.60;;
16826;SDS011;8530;49.540;8.576;2023-07-13T05:55:24;6.57;;;2.80;;
16826;SDS011;8530;49.540;8.576;2023-07-13T05:57:52;3.30;;;2.47;;
16826;SDS011;8530;49.540;8.576;2023-07-13T06:00:19;4.47;;;2.80;;
16826;SDS011;8530;49.540;8.576;2023-07-13T06:02:46;4.33;;;2.10;;
16826;SDS011;8530;49.540;8.576;2023-07-13T06:05:13;5.37;;;2.37;;
16826;SDS011;8530;49.540;8.576;2023-07-13T06:07:40;3.70;;;2.50;;
16826;SDS011;8530;49.540;8.576;2023-07-13T06:10:08;5.13;;;2.50;;
16826;SDS011;8530;49.540;8.576;2023-07-13T06:12:35;6.87;;;2.60;;
16826;SDS011;8530;49.540;8.576;2023-07-13T06:15:03;4.50;;;2.77;;
16826;SDS011;8530;49.540;8.576;2023-07-13T06:17:31;7.00;;;2.10;;
16826;SDS011;8530;49.540;8.576;2023-07-13T06:19:57;5.00;;;1.83;;
16826;SDS011;8530;49.540;8.576;2023-07-13T06:22:24;19.60;;;2.90;;
16826;SDS011;8530;49.540;8.576;2023-07-13T06:24:51;3.80;;;2.10;;
16826;SDS011;8530;49.540;8.576;2023-07-13T06:27:18;3.72;;;1.67;;
16826;SDS011;8530;49.540;8.576;2023-07-13T06:29:45;3.42;;;1.67;;
16826;SDS011;8530;49.540;8.576;2023-07-13T06:32:13;4.13;;;2.13;;
16826;SDS011;8530;49.540;8.576;2023-07-13T06:34:39;3.60;;;1.52;;
16826;SDS011;8530;49.540;8.576;2023-07-13T06:37:06;3.00;;;1.42;;
16826;SDS011;8530;49.540;8.576;2023-07-13T06:39:33;2.60;;;1.77;;
16826;SDS011;8530;49.540;8.576;2023-07-13T06:41:59;2.97;;;1.33;;
16826;SDS011;8530;49.540;8.576;2023-07-13T06:44:26;2.35;;;1.45;;
16826;SDS011;8530;49.540;8.576;2023-07-13T06:46:53;2.15;;;1.30;;
16826;SDS011;8530;49.540;8.576;2023-07-13T06:49:21;3.67;;;1.55;;
16826;SDS011;8530;49.540;8.576;2023-07-13T06:51:48;6.18;;;1.38;;
16826;SDS011;8530;49.540;8.576;2023-07-13T06:54:15;1.85;;;1.20;;
16826;SDS011;8530;49.540;8.576;2023-07-13T06:56:41;8.23;;;1.88;;
16826;SDS011;8530;49.540;8.576;2023-07-13T06:59:08;3.30;;;1.38;;
16826;SDS011;8530;49.540;8.576;2023-07-13T07:01:35;3.67;;;1.40;;
16826;SDS011;8530;49.540;8.576;2023-07-13T07:04:02;7.85;;;1.60;;
16826;SDS011;8530;49.540;8.576;2023-07-13T07:06:30;2.80;;;1.33;;
16826;SDS011;8530;49.540;8.576;2023-07-13T07:08:58;5.38;;;1.55;;
16826;SDS011;8530;49.540;8.576;2023-07-13T07:11:25;2.63;;;1.20;;
16826;SDS011;8530;49.540;8.576;2023-07-13T07:13:52;3.13;;;1.80;;
16826;SDS011;8530;49.540;8.576;2023-07-13T07:16:20;2.80;;;1.70;;
16826;SDS011;8530;49.540;8.576;2023-07-13T07:18:47;2.60;;;1.30;;
16826;SDS011;8530;49.540;8.576;2023-07-13T07:21:14;4.20;;;1.20;;
16826;SDS011;8530;49.540;8.576;2023-07-13T07:26:10;3.38;;;1.95;;
16826;SDS011;8530;49.540;8.576;2023-07-13T07:28:37;4.15;;;1.65;;
16826;SDS011;8530;49.540;8.576;2023-07-13T07:31:04;1.88;;;1.30;;
16826;SDS011;8530;49.540;8.576;2023-07-13T07:33:31;6.70;;;1.70;;
16826;SDS011;8530;49.540;8.576;2023-07-13T07:35:58;6.65;;;1.45;;
16826;SDS011;8530;49.540;8.576;2023-07-13T07:38:25;5.30;;;1.52;;
16826;SDS011;8530;49.540;8.576;2023-07-13T07:40:53;4.53;;;1.58;;
16826;SDS011;8530;49.540;8.576;2023-07-13T07:43:20;6.32;;;1.52;;
16826;SDS011;8530;49.540;8.576;2023-07-13T07:45:46;2.95;;;1.55;;
16826;SDS011;8530;49.540;8.576;2023-07-13T07:48:13;2.92;;;1.58;;
16826;SDS011;8530;49.540;8.576;2023-07-13T07:50:40;3.45;;;1.70;;
16826;SDS011;8530;49.540;8.576;2023-07-13T07:53:07;8.15;;;1.77;;
16826;SDS011;8530;49.540;8.576;2023-07-13T07:55:35;6.68;;;1.65;;
16826;SDS011;8530;49.540;8.576;2023-07-13T07:58:04;6.63;;;2.35;;
16826;SDS011;8530;49.540;8.576;2023-07-13T08:00:32;6.20;;;2.08;;
16826;SDS011;8530;49.540;8.576;2023-07-13T08:03:00;5.55;;;1.70;;
16826;SDS011;8530;49.540;8.576;2023-07-13T08:05:27;3.92;;;1.63;;
16826;SDS011;8530;49.540;8.576;2023-07-13T08:07:54;3.83;;;1.58;;
16826;SDS011;8530;49.540;8.576;2023-07-13T08:10:21;3.20;;;1.58;;
16826;SDS011;8530;49.540;8.576;2023-07-13T08:12:48;2.20;;;1.75;;
16826;SDS011;8530;49.540;8.576;2023-07-13T08:15:16;3.13;;;1.70;;
16826;SDS011;8530;49.540;8.576;2023-07-13T08:17:45;6.50;;;1.83;;
16826;SDS011;8530;49.540;8.576;2023-07-13T08:20:12;4.05;;;1.67;;
16826;SDS011;8530;49.540;8.576;2023-07-13T08:22:39;5.78;;;2.90;;
16826;SDS011;8530;49.540;8.576;2023-07-13T08:25:07;6.40;;;2.00;;
16826;SDS011;8530;49.540;8.576;2023-07-13T08:27:34;9.80;;;1.98;;
16826;SDS011;8530;49.540;8.576;2023-07-13T08:30:01;12.45;;;1.55;;
16826;SDS011;8530;49.540;8.576;2023-07-13T08:32:29;4.45;;;2.15;;
16826;SDS011;8530;49.540;8.576;2023-07-13T08:34:56;3.55;;;2.20;;
16826;SDS011;8530;49.540;8.576;2023-07-13T08:37:22;4.00;;;1.90;;
16826;SDS011;8530;49.540;8.576;2023-07-13T08:39:49;6.45;;;1.88;;
16826;SDS011;8530;49.540;8.576;2023-07-13T08:42:18;2.90;;;1.90;;
16826;SDS011;8530;49.540;8.576;2023-07-13T08:44:56;8.27;;;2.20;;
16826;SDS011;8530;49.540;8.576;2023-07-13T08:47:44;3.80;;;1.65;;
16826;SDS011;8530;49.540;8.576;2023-07-13T08:50:15;12.30;;;1.83;;
16826;SDS011;8530;49.540;8.576;2023-07-13T08:52:43;2.92;;;1.52;;
16826;SDS011;8530;49.540;8.576;2023-07-13T08:55:15;3.63;;;1.85;;
16826;SDS011;8530;49.540;8.576;2023-07-13T08:57:45;8.30;;;1.88;;
16826;SDS011;8530;49.540;8.576;2023-07-13T09:00:20;6.88;;;1.80;;
16826;SDS011;8530;49.540;8.576;2023-07-13T09:02:53;3.40;;;1.38;;
16826;SDS011;8530;49.540;8.576;2023-07-13T09:05:25;4.07;;;1.67;;
16826;SDS011;8530;49.540;8.576;2023-07-13T09:08:06;4.90;;;1.73;;
16826;SDS011;8530;49.540;8.576;2023-07-13T09:10:43;5.07;;;2.43;;
16826;SDS011;8530;49.540;8.576;2023-07-13T09:13:19;5.90;;;2.20;;
16826;SDS011;8530;49.540;8.576;2023-07-13T09:15:53;7.03;;;1.77;;
16826;SDS011;8530;49.540;8.576;2023-07-13T09:18:23;3.50;;;1.40;;
16826;SDS011;8530;49.540;8.576;2023-07-13T09:20:56;2.40;;;1.30;;
16826;SDS011;8530;49.540;8.576;2023-07-13T09:23:27;3.33;;;1.00;;
16826;SDS011;8530;49.540;8.576;2023-07-13T09:25:58;6.50;;;1.60;;
16826;SDS011;8530;49.540;8.576;2023-07-13T09:28:28;4.83;;;1.97;;
16826;SDS011;8530;49.540;8.576;2023-07-13T09:31:00;4.33;;;1.60;;
16826;SDS011;8530;49.540;8.576;2023-07-13T09:33:31;5.17;;;1.63;;
16826;SDS011;8530;49.540;8.576;2023-07-13T09:36:00;9.30;;;2.50;;
16826;SDS011;8530;49.540;8.576;2023-07-13T09:38:27;4.07;;;1.50;;
16826;SDS011;8530;49.540;8.576;2023-07-13T09:41:04;5.83;;;2.03;;
16826;SDS011;8530;49.540;8.576;2023-07-13T09:43:55;3.87;;;1.30;;
16826;SDS011;8530;49.540;8.576;2023-07-13T09:46:27;5.90;;;1.50;;
16826;SDS011;8530;49.540;8.576;2023-07-13T09:48:55;4.30;;;1.27;;
16826;SDS011;8530;49.540;8.576;2023-07-13T09:51:22;6.20;;;1.50;;
16826;SDS011;8530;49.540;8.576;2023-07-13T09:53:48;3.43;;;1.67;;
16826;SDS011;8530;49.540;8.576;2023-07-13T09:56:19;4.83;;;1.43;;
16826;SDS011;8530;49.540;8.576;2023-07-13T09:58:47;4.27;;;1.70;;
16826;SDS011;8530;49.540;8.576;2023-07-13T10:01:14;8.43;;;2.10;;
16826;SDS011;8530;49.540;8.576;2023-07-13T10:03:51;5.33;;;2.23;;
16826;SDS011;8530;49.540;8.576;2023-07-13T10:06:21;4.30;;;1.70;;
16826;SDS011;8530;49.540;8.576;2023-07-13T10:08:49;4.40;;;1.30;;
16826;SDS011;8530;49.540;8.576;2023-07-13T10:11:18;2.13;;;1.27;;
16826;SDS011;8530;49.540;8.576;2023-07-13T10:13:48;6.57;;;1.70;;
16826;SDS011;8530;49.540;8.576;2023-07-13T10:16:20;2.90;;;1.10;;
16826;SDS011;8530;49.540;8.576;2023-07-13T10:18:49;3.07;;;1.20;;
16826;SDS011;8530;49.540;8.576;2023-07-13T10:21:21;3.27;;;1.47;;
16826;SDS011;8530;49.540;8.576;2023-07-13T10:23:53;3.57;;;1.67;;
16826;SDS011;8530;49.540;8.576;2023-07-13T10:26:25;3.77;;;1.63;;
16826;SDS011;8530;49.540;8.576;2023-07-13T10:28:54;2.30;;;1.33;;
16826;SDS011;8530;49.540;8.576;2023-07-13T10:31:23;4.93;;;1.10;;
16826;SDS011;8530;49.540;8.576;2023-07-13T10:33:50;4.13;;;1.90;;
16826;SDS011;8530;49.540;8.576;2023-07-13T10:36:20;5.27;;;2.03;;
16826;SDS011;8530;49.540;8.576;2023-07-13T10:38:57;5.53;;;1.67;;
16826;SDS011;8530;49.540;8.576;2023-07-13T10:41:28;4.37;;;1.70;;
16826;SDS011;8530;49.540;8.576;2023-07-13T10:43:59;4.20;;;1.77;;
16826;SDS011;8530;49.540;8.576;2023-07-13T10:46:28;2.40;;;1.23;;
16826;SDS011;8530;49.540;8.576;2023-07-13T10:48:56;3.90;;;1.83;;
16826;SDS011;8530;49.540;8.576;2023-07-13T10:51:25;4.33;;;1.63;;
16826;SDS011;8530;49.540;8.576;2023-07-13T10:56:38;2.80;;;1.70;;
16826;SDS011;8530;49.540;8.576;2023-07-13T10:59:09;3.00;;;1.37;;
16826;SDS011;8530;49.540;8.576;2023-07-13T11:01:40;4.03;;;1.63;;
16826;SDS011;8530;49.540;8.576;2023-07-13T11:04:18;2.20;;;1.30;;
16826;SDS011;8530;49.540;8.576;2023-07-13T11:06:48;3.03;;;1.17;;
16826;SDS011;8530;49.540;8.576;2023-07-13T11:09:19;5.60;;;1.53;;
16826;SDS011;8530;49.540;8.576;2023-07-13T11:12:05;4.03;;;1.67;;
16826;SDS011;8530;49.540;8.576;2023-07-13T11:14:35;6.50;;;1.57;;
16826;SDS011;8530;49.540;8.576;2023-07-13T11:19:51;4.10;;;1.70;;
16826;SDS011;8530;49.540;8.576;2023-07-13T11:22:23;4.03;;;1.63;;
16826;SDS011;8530;49.540;8.576;2023-07-13T11:25:00;6.13;;;1.37;;
16826;SDS011;8530;49.540;8.576;2023-07-13T11:27:49;5.20;;;1.70;;
16826;SDS011;8530;49.540;8.576;2023-07-13T11:30:20;5.30;;;1.80;;
16826;SDS011;8530;49.540;8.576;2023-07-13T11:35:46;6.63;;;1.73;;
16826;SDS011;8530;49.540;8.576;2023-07-13T11:38:20;2.80;;;1.10;;
16826;SDS011;8530;49.540;8.576;2023-07-13T11:40:48;3.80;;;1.83;;
16826;SDS011;8530;49.540;8.576;2023-07-13T11:43:19;4.70;;;1.70;;
16826;SDS011;8530;49.540;8.576;2023-07-13T11:45:48;3.73;;;1.63;;
16826;SDS011;8530;49.540;8.576;2023-07-13T11:48:23;1.97;;;1.37;;
16826;SDS011;8530;49.540;8.576;2023-07-13T11:50:53;3.30;;;1.53;;
16826;SDS011;8530;49.540;8.576;2023-07-13T11:53:26;6.50;;;1.77;;
16826;SDS011;8530;49.540;8.576;2023-07-13T11:55:55;3.07;;;1.50;;
16826;SDS011;8530;49.540;8.576;2023-07-13T11:58:23;3.50;;;2.10;;
16826;SDS011;8530;49.540;8.576;2023-07-13T12:00:53;3.00;;;1.27;;
16826;SDS011;8530;49.540;8.576;2023-07-13T12:03:23;4.73;;;1.67;;
16826;SDS011;8530;49.540;8.576;2023-07-13T12:05:55;3.80;;;1.50;;
16826;SDS011;8530;49.540;8.576;2023-07-13T12:08:24;3.03;;;1.23;;
16826;SDS011;8530;49.540;8.576;2023-07-13T12:11:03;4.97;;;2.03;;
16826;SDS011;8530;49.540;8.576;2023-07-13T12:13:41;4.03;;;0.97;;
16826;SDS011;8530;49.540;8.576;2023-07-13T12:16:14;2.37;;;1.17;;
16826;SDS011;8530;49.540;8.576;2023-07-13T12:18:43;3.03;;;1.63;;
16826;SDS011;8530;49.540;8.576;2023-07-13T12:21:16;4.77;;;1.63;;
16826;SDS011;8530;49.540;8.576;2023-07-13T12:23:47;3.70;;;1.33;;
16826;SDS011;8530;49.540;8.576;2023-07-13T12:26:15;3.30;;;1.27;;
16826;SDS011;8530;49.540;8.576;2023-07-13T12:28:45;2.83;;;1.60;;
16826;SDS011;8530;49.540;8.576;2023-07-13T12:31:24;4.33;;;1.60;;
16826;SDS011;8530;49.540;8.576;2023-07-13T12:33:56;5.13;;;1.70;;
16826;SDS011;8530;49.540;8.576;2023-07-13T12:36:24;4.77;;;2.37;;
16826;SDS011;8530;49.540;8.576;2023-07-13T12:38:53;2.80;;;1.60;;
16826;SDS011;8530;49.540;8.576;2023-07-13T12:41:20;3.20;;;1.97;;
16826;SDS011;8530;49.540;8.576;2023-07-13T12:43:48;4.47;;;1.50;;
16826;SDS011;8530;49.540;8.576;2023-07-13T12:46:16;2.90;;;1.53;;
16826;SDS011;8530;49.540;8.576;2023-07-13T12:48:44;2.60;;;1.23;;
16826;SDS011;8530;49.540;8.576;2023-07-13T12:51:15;10.33;;;2.00;;
16826;SDS011;8530;49.540;8.576;2023-07-13T12:53:42;3.13;;;2.27;;
16826;SDS011;8530;49.540;8.576;2023-07-13T12:56:16;4.13;;;1.67;;
16826;SDS011;8530;49.540;8.576;2023-07-13T12:58:45;3.67;;;1.60;;
16826;SDS011;8530;49.540;8.576;2023-07-13T13:01:19;2.47;;;1.20;;
16826;SDS011;8530;49.540;8.576;2023-07-13T13:03:48;7.00;;;1.20;;
16826;SDS011;8530;49.540;8.576;2023-07-13T13:06:23;2.30;;;1.23;;
16826;SDS011;8530;49.540;8.576;2023-07-13T13:08:52;9.07;;;2.20;;
16826;SDS011;8530;49.540;8.576;2023-07-13T13:11:22;5.57;;;1.43;;
16826;SDS011;8530;49.540;8.576;2023-07-13T13:13:51;7.53;;;2.70;;
16826;SDS011;8530;49.540;8.576;2023-07-13T13:16:19;3.93;;;1.47;;
16826;SDS011;8530;49.540;8.576;2023-07-13T13:18:48;2.00;;;1.40;;
16826;SDS011;8530;49.540;8.576;2023-07-13T13:21:16;3.37;;;1.53;;
16826;SDS011;8530;49.540;8.576;2023-07-13T13:23:43;3.73;;;1.70;;
16826;SDS011;8530;49.540;8.576;2023-07-13T13:26:11;2.60;;;1.50;;
16826;SDS011;8530;49.540;8.576;2023-07-13T13:28:41;3.30;;;1.40;;
16826;SDS011;8530;49.540;8.576;2023-07-13T13:31:09;3.37;;;1.40;;
16826;SDS011;8530;49.540;8.576;2023-07-13T13:33:38;4.80;;;1.13;;
16826;SDS011;8530;49.540;8.576;2023-07-13T13:36:08;4.83;;;2.03;;
16826;SDS011;8530;49.540;8.576;2023-07-13T13:38:40;3.67;;;1.57;;
16826;SDS011;8530;49.540;8.576;2023-07-13T13:41:07;2.87;;;1.43;;
16826;SDS011;8530;49.540;8.576;2023-07-13T13:43:36;2.67;;;1.63;;
16826;SDS011;8530;49.540;8.576;2023-07-13T13:46:05;3.20;;;1.50;;
16826;SDS011;8530;49.540;8.576;2023-07-13T13:48:40;3.07;;;1.77;;
16826;SDS011;8530;49.540;8.576;2023-07-13T13:51:11;6.60;;;1.43;;
16826;SDS011;8530;49.540;8.576;2023-07-13T13:53:40;4.20;;;1.80;;
16826;SDS011;8530;49.540;8.576;2023-07-13T13:56:07;3.23;;;1.77;;
16826;SDS011;8530;49.540;8.576;2023-07-13T13:58:34;2.27;;;1.40;;
16826;SDS011;8530;49.540;8.576;2023-07-13T14:01:01;3.03;;;1.93;;
16826;SDS011;8530;49.540;8.576;2023-07-13T14:03:32;2.47;;;1.53;;
16826;SDS011;8530;49.540;8.576;2023-07-13T14:05:59;3.40;;;1.90;;
16826;SDS011;8530;49.540;8.576;2023-07-13T14:08:25;3.20;;;1.43;;
16826;SDS011;8530;49.540;8.576;2023-07-13T14:10:53;4.73;;;1.60;;
16826;SDS011;8530;49.540;8.576;2023-07-13T14:13:22;2.90;;;1.30;;
16826;SDS011;8530;49.540;8.576;2023-07-13T14:15:53;2.80;;;1.60;;
16826;SDS011;8530;49.540;8.576;2023-07-13T14:18:20;3.20;;;1.50;;
16826;SDS011;8530;49.540;8.576;2023-07-13T14:20:50;3.40;;;1.73;;
16826;SDS011;8530;49.540;8.576;2023-07-13T14:23:17;4.67;;;1.70;;
16826;SDS011;8530;49.540;8.576;2023-07-13T14:25:44;1.97;;;1.47;;
16826;SDS011;8530;49.540;8.576;2023-07-13T14:28:16;7.30;;;1.77;;
16826;SDS011;8530;49.540;8.576;2023-07-13T14:30:46;3.40;;;1.33;;
16826;SDS011;8530;49.540;8.576;2023-07-13T14:33:13;4.27;;;1.73;;
16826;SDS011;8530;49.540;8.576;2023-07-13T14:35:40;4.80;;;2.07;;
16826;SDS011;8530;49.540;8.576;2023-07-13T14:38:10;5.30;;;2.00;;
16826;SDS011;8530;49.540;8.576;2023-07-13T14:40:39;4.97;;;2.10;;
16826;SDS011;8530;49.540;8.576;2023-07-13T14:43:08;3.20;;;2.13;;
16826;SDS011;8530;49.540;8.576;2023-07-13T14:45:38;7.27;;;2.30;;
16826;SDS011;8530;49.540;8.576;2023-07-13T14:48:11;3.93;;;2.17;;
16826;SDS011;8530;49.540;8.576;2023-07-13T14:50:41;3.50;;;1.77;;
16826;SDS011;8530;49.540;8.576;2023-07-13T14:53:10;5.03;;;1.97;;
16826;SDS011;8530;49.540;8.576;2023-07-13T14:55:37;5.70;;;2.07;;
16826;SDS011;8530;49.540;8.576;2023-07-13T14:58:05;4.40;;;1.50;;
16826;SDS011;8530;49.540;8.576;2023-07-13T15:00:32;2.17;;;1.40;;
16826;SDS011;8530;49.540;8.576;2023-07-13T15:02:59;2.70;;;1.60;;
16826;SDS011;8530;49.540;8.576;2023-07-13T15:05:27;4.60;;;1.47;;
16826;SDS011;8530;49.540;8.576;2023-07-13T15:07:56;8.73;;;1.80;;
16826;SDS011;8530;49.540;8.576;2023-07-13T15:10:26;2.97;;;1.90;;
16826;SDS011;8530;49.540;8.576;2023-07-13T15:12:56;1.93;;;1.10;;
16826;SDS011;8530;49.540;8.576;2023-07-13T15:15:24;2.20;;;1.70;;
16826;SDS011;8530;49.540;8.576;2023-07-13T15:17:51;3.03;;;1.97;;
16826;SDS011;8530;49.540;8.576;2023-07-13T15:20:27;3.37;;;1.63;;